createdAt,value
2023-04-04T00:01:37.235Z,1.40
2023-04-04T00:04:25.338Z,1.40
2023-04-04T00:07:12.838Z,1.50
2023-04-04T00:10:02.180Z,1.50
2023-04-04T00:12:49.661Z,1.50
2023-04-04T00:15:37.644Z,1.60
2023-04-04T00:18:25.497Z,1.60
2023-04-04T00:21:12.986Z,1.60
2023-04-04T00:24:01.070Z,1.60
2023-04-04T00:26:49.927Z,1.50
2023-04-04T00:29:37.549Z,1.50
2023-04-04T00:32:25.617Z,1.50
2023-04-04T00:35:14.159Z,1.60
2023-04-04T00:38:02.227Z,1.50
2023-04-04T00:40:52.382Z,1.40
2023-04-04T00:43:41.878Z,1.40
2023-04-04T00:46:31.090Z,1.40
2023-04-04T00:49:18.882Z,1.40
2023-04-04T00:52:08.078Z,1.30
2023-04-04T00:54:57.484Z,1.30
2023-04-04T00:57:45.956Z,1.30
2023-04-04T01:00:36.382Z,1.30
2023-04-04T01:03:24.992Z,1.30
2023-04-04T01:06:13.269Z,1.20
2023-04-04T01:09:01.656Z,1.10
2023-04-04T01:11:49.203Z,1.10
2023-04-04T01:14:36.828Z,1.10
2023-04-04T01:17:29.060Z,1.10
2023-04-04T01:20:21.691Z,1.00
2023-04-04T01:23:15.028Z,0.90
2023-04-04T01:26:08.234Z,0.90
2023-04-04T01:28:57.409Z,0.90
2023-04-04T01:31:49.859Z,0.90
2023-04-04T01:34:48.893Z,0.80
2023-04-04T01:37:41.844Z,0.80
2023-04-04T01:40:38.035Z,0.70
2023-04-04T01:43:32.028Z,0.70
2023-04-04T01:46:21.204Z,0.70
2023-04-04T01:49:11.248Z,0.50
2023-04-04T01:52:00.555Z,0.50
2023-04-04T01:54:48.153Z,0.50
2023-04-04T01:57:35.992Z,0.50
2023-04-04T02:00:25.800Z,0.50
2023-04-04T02:03:13.490Z,0.50
2023-04-04T02:06:00.837Z,0.40
2023-04-04T02:08:48.422Z,0.40
2023-04-04T02:11:36.092Z,0.40
2023-04-04T02:14:24.150Z,0.30
2023-04-04T02:17:14.441Z,0.30
2023-04-04T02:20:02.641Z,0.30
2023-04-04T02:22:55.026Z,0.30
2023-04-04T02:25:42.519Z,0.20
2023-04-04T02:28:31.710Z,0.20
2023-04-04T02:31:19.575Z,0.20
2023-04-04T02:34:08.596Z,0.10
2023-04-04T02:36:56.210Z,0.10
2023-04-04T02:39:44.398Z,0.10
2023-04-04T02:42:32.488Z,0.10
2023-04-04T02:45:20.831Z,0.10
2023-04-04T02:48:17.855Z,0.00
2023-04-04T02:51:10.580Z,0.00
2023-04-04T02:53:58.406Z,0.00
2023-04-04T02:56:52.782Z,0.00
2023-04-04T02:59:40.653Z,0.00
2023-04-04T03:02:28.557Z,0.00
2023-04-04T03:05:16.655Z,0.00
2023-04-04T03:08:06.446Z,-0.10
2023-04-04T03:10:54.235Z,0.00
2023-04-04T03:13:44.351Z,-0.10
2023-04-04T03:16:32.090Z,-0.10
2023-04-04T03:19:19.666Z,-0.10
2023-04-04T03:22:08.309Z,-0.20
2023-04-04T03:24:57.937Z,-0.20
2023-04-04T03:27:45.112Z,-0.20
2023-04-04T03:30:40.331Z,-0.20
2023-04-04T03:33:28.345Z,-0.20
2023-04-04T03:36:15.925Z,-0.20
2023-04-04T03:39:03.753Z,-0.30
2023-04-04T03:41:52.911Z,-0.30
2023-04-04T03:44:42.195Z,-0.30
2023-04-04T03:47:41.225Z,-0.30
2023-04-04T03:50:29.206Z,-0.40
2023-04-04T03:53:16.902Z,-0.40
2023-04-04T03:56:04.768Z,-0.30
2023-04-04T03:58:56.071Z,-0.40
2023-04-04T04:01:43.848Z,-0.40
2023-04-04T04:04:31.480Z,-0.40
2023-04-04T04:07:19.168Z,-0.40
2023-04-04T04:10:07.642Z,-0.40
2023-04-04T04:12:55.378Z,-0.40
2023-04-04T04:15:44.718Z,-0.50
2023-04-04T04:18:41.053Z,-0.50
2023-04-04T04:21:33.892Z,-0.50
2023-04-04T04:24:22.818Z,-0.50
2023-04-04T04:27:10.310Z,-0.50
2023-04-04T04:29:58.336Z,-0.50
2023-04-04T04:32:47.427Z,-0.60
2023-04-04T04:35:39.322Z,-0.60
2023-04-04T04:38:27.742Z,-0.60
2023-04-04T04:41:16.032Z,-0.60
2023-04-04T04:44:07.759Z,-0.70
2023-04-04T04:46:55.846Z,-0.70
2023-04-04T04:49:48.306Z,-0.70
2023-04-04T04:52:39.221Z,-0.70
2023-04-04T04:55:27.062Z,-0.70
2023-04-04T04:58:31.483Z,-0.70
2023-04-04T05:01:22.245Z,-0.70
2023-04-04T05:04:11.055Z,-0.70
2023-04-04T05:07:08.688Z,-0.70
2023-04-04T05:09:56.668Z,-0.70
2023-04-04T05:12:45.721Z,-0.70
2023-04-04T05:15:40.422Z,-0.70
2023-04-04T05:18:29.085Z,-0.70
2023-04-04T05:21:17.552Z,-0.70
2023-04-04T05:24:08.065Z,-0.70
2023-04-04T05:26:58.896Z,-0.70
2023-04-04T05:29:48.607Z,-0.70
2023-04-04T05:32:37.589Z,-0.70
2023-04-04T05:35:30.801Z,-0.60
2023-04-04T05:38:20.595Z,-0.60
2023-04-04T05:41:13.654Z,-0.50
2023-04-04T05:44:04.466Z,-0.50
2023-04-04T05:46:52.751Z,-0.40
2023-04-04T05:49:41.114Z,-0.30
2023-04-04T05:52:29.224Z,-0.30
2023-04-04T05:55:17.392Z,-0.20
2023-04-04T05:58:06.304Z,-0.20
2023-04-04T06:01:09.046Z,-0.10
2023-04-04T06:03:58.031Z,-0.10
2023-04-04T06:06:47.640Z,0.00
2023-04-04T06:09:36.483Z,0.10
2023-04-04T06:12:24.147Z,0.10
2023-04-04T06:15:13.677Z,0.20
2023-04-04T06:18:03.226Z,0.20
2023-04-04T06:20:51.030Z,0.30
2023-04-04T06:23:38.357Z,0.40
2023-04-04T06:26:27.714Z,0.50
2023-04-04T06:29:16.605Z,0.60
2023-04-04T06:32:06.918Z,0.60
2023-04-04T06:34:58.643Z,0.80
2023-04-04T06:38:06.452Z,0.90
2023-04-04T06:40:54.490Z,0.90
2023-04-04T06:43:42.861Z,1.00
2023-04-04T06:46:33.538Z,1.10
2023-04-04T06:49:22.753Z,1.20
2023-04-04T06:52:11.389Z,1.30
2023-04-04T06:54:59.124Z,1.50
2023-04-04T06:57:47.762Z,1.60
2023-04-04T07:00:35.374Z,1.70
2023-04-04T07:03:24.060Z,1.80
2023-04-04T07:06:13.397Z,1.90
2023-04-04T07:09:01.188Z,2.00
2023-04-04T07:11:48.924Z,2.10
2023-04-04T07:14:36.607Z,2.20
2023-04-04T07:17:25.084Z,2.30
2023-04-04T07:20:13.742Z,2.30
2023-04-04T07:23:03.227Z,2.40
2023-04-04T07:25:51.124Z,2.50
2023-04-04T07:28:38.807Z,2.50
2023-04-04T07:31:26.542Z,2.60
2023-04-04T07:34:14.028Z,2.70
2023-04-04T07:37:01.537Z,2.90
2023-04-04T07:39:51.434Z,3.00
2023-04-04T07:42:46.537Z,3.00
2023-04-04T07:45:34.521Z,3.00
2023-04-04T07:48:23.002Z,3.00
2023-04-04T07:51:10.827Z,3.10
2023-04-04T07:53:58.650Z,3.20
2023-04-04T07:56:48.413Z,3.30
2023-04-04T07:59:36.254Z,3.40
2023-04-04T08:02:24.398Z,3.50
2023-04-04T08:05:12.486Z,3.80
2023-04-04T08:08:00.015Z,4.00
2023-04-04T08:10:49.601Z,4.20
2023-04-04T08:13:39.300Z,4.50
2023-04-04T08:16:27.434Z,4.60
2023-04-04T08:19:17.093Z,4.80
2023-04-04T08:22:05.622Z,4.80
2023-04-04T08:24:52.933Z,4.60
2023-04-04T08:27:45.470Z,4.50
2023-04-04T08:30:34.668Z,4.60
2023-04-04T08:33:28.926Z,4.70
2023-04-04T08:36:22.684Z,4.80
2023-04-04T08:39:11.250Z,4.70
2023-04-04T08:42:06.019Z,4.70
2023-04-04T08:44:55.456Z,4.50
2023-04-04T08:47:45.957Z,4.40
2023-04-04T08:50:33.898Z,4.40
2023-04-04T08:53:22.198Z,4.40
2023-04-04T08:56:10.540Z,4.40
2023-04-04T08:58:59.474Z,4.50
2023-04-04T09:01:46.901Z,4.60
2023-04-04T09:04:36.215Z,4.60
2023-04-04T09:07:25.657Z,4.70
2023-04-04T09:10:13.491Z,4.80
2023-04-04T09:13:12.511Z,5.20
2023-04-04T09:16:04.580Z,5.70
2023-04-04T09:18:53.171Z,6.60
2023-04-04T09:21:47.456Z,7.00
2023-04-04T09:24:40.633Z,8.40
2023-04-04T09:27:28.798Z,10.40
2023-04-04T09:30:19.572Z,10.30
2023-04-04T10:10:18.730Z,9.30
2023-04-04T10:13:07.878Z,11.10
2023-04-04T10:15:56.691Z,12.50
2023-04-04T10:18:44.957Z,13.50
2023-04-04T10:21:32.929Z,15.40
2023-04-04T10:24:20.784Z,17.20
2023-04-04T10:27:08.621Z,16.70
2023-04-04T10:29:58.542Z,14.50
2023-04-04T10:32:58.798Z,12.60
2023-04-04T10:35:49.420Z,11.10
2023-04-04T10:38:45.294Z,10.50
2023-04-04T10:41:34.221Z,11.00
2023-04-04T10:44:32.217Z,11.90
2023-04-04T10:47:23.933Z,11.90
2023-04-04T10:50:13.783Z,11.40
2023-04-04T10:53:04.418Z,11.20
2023-04-04T10:55:53.158Z,10.80
2023-04-04T10:58:43.115Z,10.60
2023-04-04T11:01:50.313Z,10.00
2023-04-04T11:04:42.926Z,9.50
2023-04-04T11:07:33.092Z,9.10
2023-04-04T11:10:25.624Z,9.00
2023-04-04T11:13:18.656Z,9.00
2023-04-04T11:16:10.235Z,9.10
2023-04-04T11:19:01.756Z,9.30
2023-04-04T11:21:53.329Z,9.40
2023-04-04T11:24:44.996Z,9.30
2023-04-04T11:27:32.685Z,9.30
2023-04-04T11:30:20.531Z,9.40
2023-04-04T11:33:08.545Z,9.50
2023-04-04T11:36:02.331Z,9.40
2023-04-04T11:38:52.609Z,9.00
2023-04-04T11:41:51.614Z,8.80
2023-04-04T11:44:43.540Z,8.80
2023-04-04T11:47:31.842Z,8.60
2023-04-04T11:50:22.749Z,8.50
2023-04-04T11:53:12.002Z,8.50
2023-04-04T11:56:01.234Z,8.50
2023-04-04T11:58:56.032Z,8.70
2023-04-04T12:01:51.156Z,9.10
2023-04-04T12:04:41.154Z,9.00
2023-04-04T12:07:30.866Z,8.70
2023-04-04T12:10:19.785Z,8.50
2023-04-04T12:13:11.169Z,8.40
2023-04-04T12:15:58.960Z,8.40
2023-04-04T12:18:47.524Z,8.50
2023-04-04T12:21:35.116Z,8.60
2023-04-04T12:24:23.416Z,8.70
2023-04-04T12:27:11.253Z,8.90
2023-04-04T12:30:01.020Z,8.80
2023-04-04T12:32:50.743Z,8.70
2023-04-04T12:35:39.924Z,8.50
2023-04-04T12:38:28.578Z,8.30
2023-04-04T12:41:19.990Z,8.30
2023-04-04T12:44:08.848Z,8.30
2023-04-04T12:46:59.354Z,8.30
2023-04-04T12:49:49.971Z,8.50
2023-04-04T12:52:41.784Z,8.50
2023-04-04T12:55:33.302Z,8.40
2023-04-04T12:58:23.388Z,8.10
2023-04-04T13:01:11.362Z,7.90
2023-04-04T13:04:04.800Z,8.00
2023-04-04T13:06:53.051Z,8.20
2023-04-04T13:09:53.986Z,8.30
2023-04-04T13:13:00.330Z,8.40
2023-04-04T13:15:54.783Z,8.50
2023-04-04T13:18:44.440Z,8.30
2023-04-04T13:21:33.678Z,8.30
2023-04-04T13:24:22.312Z,8.30
2023-04-04T13:27:10.289Z,8.40
2023-04-04T13:29:58.200Z,8.80
2023-04-04T13:32:45.956Z,9.40
2023-04-04T13:35:35.870Z,9.60
2023-04-04T13:38:26.688Z,9.50
2023-04-04T13:41:15.633Z,9.20
2023-04-04T13:44:07.869Z,8.90
2023-04-04T13:46:56.212Z,8.70
2023-04-04T13:49:44.088Z,8.70
2023-04-04T13:52:31.817Z,9.00
2023-04-04T13:55:20.836Z,9.10
2023-04-04T13:58:08.543Z,9.10
2023-04-04T14:00:57.820Z,9.00
2023-04-04T14:03:45.783Z,8.70
2023-04-04T14:06:33.454Z,8.60
2023-04-04T14:09:21.273Z,8.70
2023-04-04T14:15:01.750Z,8.60
2023-04-04T14:17:49.494Z,8.60
2023-04-04T14:20:38.766Z,8.80
2023-04-04T14:23:26.739Z,9.00
2023-04-04T14:26:14.702Z,9.20
2023-04-04T14:29:05.011Z,9.10
2023-04-04T14:31:53.282Z,9.10
2023-04-04T14:34:41.539Z,9.00
2023-04-04T14:37:29.178Z,8.80
2023-04-04T14:40:16.832Z,8.60
2023-04-04T14:43:04.882Z,8.40
2023-04-04T14:45:53.835Z,8.50
2023-04-04T14:48:41.628Z,8.50
2023-04-04T14:51:29.739Z,8.40
2023-04-04T14:54:17.606Z,8.10
2023-04-04T14:57:07.013Z,7.90
2023-04-04T14:59:54.877Z,7.80
2023-04-04T15:02:43.881Z,7.80
2023-04-04T15:05:33.002Z,7.90
2023-04-04T15:08:21.459Z,8.00
2023-04-04T15:11:10.281Z,7.90
2023-04-04T15:13:58.332Z,7.80
2023-04-04T15:16:48.724Z,7.70
2023-04-04T15:19:37.862Z,7.70
2023-04-04T15:22:26.072Z,7.70
2023-04-04T15:25:13.810Z,7.80
2023-04-04T15:28:01.913Z,7.90
2023-04-04T15:30:49.690Z,7.80
2023-04-04T15:33:37.487Z,7.70
2023-04-04T15:36:29.097Z,7.70
2023-04-04T15:39:16.629Z,7.70
2023-04-04T15:42:06.961Z,7.60
2023-04-04T15:44:56.830Z,7.60
2023-04-04T15:47:48.381Z,7.50
2023-04-04T15:50:36.172Z,7.40
2023-04-04T15:53:25.641Z,7.30
2023-04-04T15:56:13.810Z,7.10
2023-04-04T15:59:00.690Z,7.20
2023-04-04T16:01:47.984Z,7.30
2023-04-04T16:04:35.347Z,7.10
2023-04-04T16:07:22.973Z,6.90
2023-04-04T16:10:12.760Z,6.80
2023-04-04T16:12:59.816Z,6.70
2023-04-04T16:15:47.173Z,6.70
2023-04-04T16:18:34.095Z,6.70
2023-04-04T16:21:21.946Z,6.60
2023-04-04T16:24:12.959Z,6.60
2023-04-04T16:27:04.566Z,6.60
2023-04-04T16:29:52.246Z,6.50
2023-04-04T16:32:42.105Z,6.50
2023-04-04T16:35:30.177Z,6.40
2023-04-04T16:38:19.580Z,6.50
2023-04-04T16:41:09.923Z,6.50
2023-04-04T16:44:00.231Z,6.50
2023-04-04T16:46:48.879Z,6.60
2023-04-04T16:49:36.487Z,6.50
2023-04-04T16:52:24.535Z,6.50
2023-04-04T16:55:12.411Z,6.40
2023-04-04T16:58:00.493Z,6.30
2023-04-04T17:00:50.083Z,6.20
2023-04-04T17:03:37.842Z,6.10
2023-04-04T17:06:28.387Z,6.00
2023-04-04T17:09:16.030Z,5.80
2023-04-04T17:12:03.896Z,5.70
2023-04-04T17:14:51.679Z,5.60
2023-04-04T17:17:40.684Z,5.60
2023-04-04T17:20:30.297Z,5.50
2023-04-04T17:23:19.302Z,5.40
2023-04-04T17:26:06.907Z,5.50
2023-04-04T17:28:54.596Z,5.40
2023-04-04T17:31:43.875Z,5.30
2023-04-04T17:34:33.061Z,5.20
2023-04-04T17:37:21.197Z,5.10
2023-04-04T17:40:09.780Z,5.00
2023-04-04T17:42:57.734Z,4.90
2023-04-04T17:45:45.507Z,4.90
2023-04-04T17:48:36.926Z,4.90
2023-04-04T17:51:26.844Z,4.80
2023-04-04T17:54:15.098Z,4.80
2023-04-04T17:57:03.782Z,4.70
2023-04-04T17:59:52.737Z,4.70
2023-04-04T18:02:40.363Z,4.60
2023-04-04T18:05:27.995Z,4.50
2023-04-04T18:08:17.334Z,4.50
2023-04-04T18:11:05.380Z,4.40
2023-04-04T18:13:52.702Z,4.40
2023-04-04T18:16:41.159Z,4.30
2023-04-04T18:19:29.115Z,4.20
2023-04-04T18:22:16.615Z,4.30
2023-04-04T18:25:06.116Z,4.20
2023-04-04T18:27:54.737Z,4.20
2023-04-04T18:30:42.621Z,4.10
2023-04-04T18:33:30.637Z,4.10
2023-04-04T18:36:18.188Z,4.00
2023-04-04T18:39:06.288Z,4.00
2023-04-04T18:41:55.643Z,4.00
2023-04-04T18:44:43.833Z,3.90
2023-04-04T18:47:34.075Z,3.80
2023-04-04T18:50:21.682Z,3.80
2023-04-04T18:53:09.403Z,3.80
2023-04-04T18:55:59.421Z,3.70
2023-04-04T18:58:48.535Z,3.70
2023-04-04T19:01:39.615Z,3.70
2023-04-04T19:04:30.102Z,3.70
2023-04-04T19:07:22.261Z,3.70
2023-04-04T19:10:11.074Z,3.60
2023-04-04T19:12:58.795Z,3.60
2023-04-04T19:15:47.914Z,3.60
2023-04-04T19:18:36.315Z,3.60
2023-04-04T19:21:23.627Z,3.50
2023-04-04T19:24:11.978Z,3.50
2023-04-04T19:26:59.476Z,3.40
2023-04-04T19:29:47.099Z,3.40
2023-04-04T19:32:37.391Z,3.40
2023-04-04T19:35:49.681Z,3.40
2023-04-04T19:38:39.521Z,3.40
2023-04-04T19:41:36.173Z,3.30
2023-04-04T19:44:23.754Z,3.30
2023-04-04T19:47:12.069Z,3.20
2023-04-04T19:50:01.262Z,3.10
2023-04-04T19:52:50.616Z,3.10
2023-04-04T19:55:41.010Z,3.00
2023-04-04T19:58:29.258Z,2.90
2023-04-04T20:01:23.246Z,2.90
2023-04-04T20:04:11.830Z,2.80
2023-04-04T20:07:01.603Z,2.80
2023-04-04T20:09:52.290Z,2.70
2023-04-04T20:12:40.480Z,2.60
2023-04-04T20:16:01.122Z,2.60
2023-04-04T20:18:49.277Z,2.50
2023-04-04T20:21:39.396Z,2.40
2023-04-04T20:24:29.496Z,2.40
2023-04-04T20:27:24.568Z,2.30
2023-04-04T20:30:13.795Z,2.30
2023-04-04T20:33:08.188Z,2.20
2023-04-04T20:35:56.386Z,2.10
2023-04-04T20:38:43.848Z,2.10
2023-04-04T20:41:32.758Z,2.10
2023-04-04T20:44:21.694Z,2.00
2023-04-04T20:47:29.913Z,1.90
2023-04-04T20:50:44.491Z,1.90
2023-04-04T20:53:32.940Z,1.80
2023-04-04T20:56:43.094Z,1.80
2023-04-04T20:59:30.024Z,1.70
2023-04-04T21:02:20.220Z,1.70
2023-04-04T21:05:27.903Z,1.70
2023-04-04T21:08:43.691Z,1.70
2023-04-04T21:11:33.869Z,1.60
2023-04-04T21:14:25.967Z,1.50
2023-04-04T21:17:13.908Z,1.60
2023-04-04T21:20:01.477Z,1.50
2023-04-04T21:22:52.606Z,1.50
2023-04-04T21:25:46.127Z,1.40
2023-04-04T21:28:34.693Z,1.40
2023-04-04T21:31:26.680Z,1.30
2023-04-04T21:34:17.160Z,1.30
2023-04-04T21:37:07.565Z,1.20
2023-04-04T21:40:00.768Z,1.20
2023-04-04T21:42:50.088Z,1.20
2023-04-04T21:45:37.279Z,1.10
